Time;durP1;ratioP1;P1;durP2;ratioP2;P2;SDS_P1;SDS_P2;PMS_P1;PMS_P2;Temp;Humidity;BMP_temperature;BMP_pressure;BME280_temperature;BME280_humidity;BME280_pressure;Samples;Min_cycle;Max_cycle;Signal;HPM_P1;HPM_P2
2021/06/23 00:01:36;;;;;;;17.63;16.03;;;;;;;16.76;97.42;97998.56;5105368;28;20243;-70
2021/06/23 00:04:05;;;;;;;16.10;14.87;;;;;;;16.76;97.69;98001.22;5103961;28;20208;-71
2021/06/23 00:06:33;;;;;;;16.87;15.57;;;;;;;16.66;100.00;98000.81;5102446;28;20292;-71
2021/06/23 00:09:00;;;;;;;16.30;15.10;;;;;;;16.72;100.00;98013.38;5104199;28;20229;-72
2021/06/23 00:11:32;;;;;;;16.07;14.87;;;;;;;16.75;100.00;98004.94;5106320;27;20580;-71
2021/06/23 00:14:02;;;;;;;16.80;15.40;;;;;;;16.56;100.00;98019.13;5100977;27;20213;-71
2021/06/23 00:16:30;;;;;;;17.17;15.67;;;;;;;16.66;100.00;98011.50;5103941;28;20206;-71
2021/06/23 00:18:58;;;;;;;17.57;16.17;;;;;;;16.57;100.00;98010.88;5103425;28;20282;-72
2021/06/23 00:21:27;;;;;;;16.97;15.67;;;;;;;16.60;100.00;98025.72;5103953;27;20629;-71
2021/06/23 00:23:54;;;;;;;18.23;16.83;;;;;;;16.67;100.00;98031.91;5103404;28;20194;-71
2021/06/23 00:26:22;;;;;;;17.17;15.87;;;;;;;16.59;100.00;98034.75;5104844;27;20202;-71
2021/06/23 00:28:50;;;;;;;17.97;16.57;;;;;;;16.73;100.00;98027.59;5098757;28;20222;-72
2021/06/23 00:31:20;;;;;;;17.73;16.23;;;;;;;16.61;100.00;98017.47;5093463;28;20195;-71
2021/06/23 00:33:49;;;;;;;20.53;18.73;;;;;;;16.54;100.00;98031.88;5102486;28;20202;-72
2021/06/23 00:36:17;;;;;;;18.93;17.43;;;;;;;16.43;100.00;98044.78;5096858;28;20217;-72
2021/06/23 00:38:45;;;;;;;19.73;18.13;;;;;;;16.42;100.00;98039.66;5091466;28;20229;-70
2021/06/23 00:41:17;;;;;;;19.27;17.67;;;;;;;16.47;100.00;98040.66;5097769;27;20225;-71
2021/06/23 00:43:45;;;;;;;20.30;18.70;;;;;;;16.39;100.00;98043.53;5092944;28;20198;-71
2021/06/23 00:46:13;;;;;;;21.23;19.53;;;;;;;16.29;100.00;98043.94;5102754;28;20217;-70
2021/06/23 00:48:58;;;;;;;20.70;19.00;;;;;;;16.03;100.00;98041.94;5099232;28;20226;-71
2021/06/23 00:51:26;;;;;;;21.47;19.53;;;;;;;15.90;100.00;98045.38;5103186;28;20209;-71
2021/06/23 00:53:54;;;;;;;22.87;21.03;;;;;;;15.75;100.00;98042.81;5102367;28;20204;-71
2021/06/23 00:56:30;;;;;;;23.40;21.37;;;;;;;15.67;100.00;98041.09;5103569;28;20597;-73
2021/06/23 00:58:58;;;;;;;22.93;21.07;;;;;;;15.67;100.00;98040.25;5099599;28;20268;-71
2021/06/23 01:01:26;;;;;;;23.83;21.87;;;;;;;15.54;100.00;98035.69;5105554;28;20233;-72
2021/06/23 01:03:55;;;;;;;24.27;22.20;;;;;;;15.56;100.00;98039.78;5092237;28;20201;-72
2021/06/23 01:06:25;;;;;;;24.07;21.90;;;;;;;15.49;100.00;98037.06;5099409;28;20200;-71
2021/06/23 01:08:53;;;;;;;25.27;22.97;;;;;;;15.48;100.00;98040.75;5096563;28;20618;-72
2021/06/23 01:11:21;;;;;;;25.03;22.83;;;;;;;15.58;100.00;98035.09;5098239;28;20213;-72
2021/06/23 01:13:57;;;;;;;25.37;23.27;;;;;;;15.65;100.00;98034.28;5103919;28;20202;-72
2021/06/23 01:16:27;;;;;;;24.83;22.73;;;;;;;15.60;100.00;98037.56;5101877;28;20316;-71
2021/06/23 01:18:56;;;;;;;26.97;24.33;;;;;;;15.48;100.00;98050.63;5086029;28;20222;-72
2021/06/23 01:21:27;;;;;;;25.00;22.80;;;;;;;15.61;100.00;98042.69;5093107;28;20224;-70
2021/06/23 01:23:56;;;;;;;25.63;23.50;;;;;;;15.48;100.00;98053.31;5099124;28;20224;-72
2021/06/23 01:26:24;;;;;;;26.40;24.07;;;;;;;15.60;100.00;98058.94;5091641;28;20209;-72
2021/06/23 01:28:52;;;;;;;27.00;24.50;;;;;;;15.54;100.00;98057.84;5097904;28;20232;-71
2021/06/23 01:31:21;;;;;;;27.90;25.33;;;;;;;15.46;100.00;98058.00;5101039;28;20213;-71
2021/06/23 01:33:50;;;;;;;28.13;25.47;;;;;;;15.34;100.00;98057.72;5102339;28;20198;-73
2021/06/23 01:36:18;;;;;;;27.10;24.50;;;;;;;15.32;100.00;98049.88;5102378;28;20198;-73
2021/06/23 01:38:46;;;;;;;28.30;25.53;;;;;;;15.31;100.00;98058.09;5100623;28;20278;-72
2021/06/23 01:41:15;;;;;;;27.87;25.27;;;;;;;15.34;100.00;98058.56;5102871;28;20209;-71
2021/06/23 01:43:45;;;;;;;25.17;22.97;;;;;;;15.31;100.00;98058.91;5104415;28;20204;-70
2021/06/23 01:46:13;;;;;;;27.70;25.10;;;;;;;15.29;100.00;98054.78;5041105;28;1362473;-70
2021/06/23 01:48:41;;;;;;;27.37;24.87;;;;;;;15.20;100.00;98056.78;5082851;28;20250;-72
2021/06/23 01:51:09;;;;;;;28.00;25.50;;;;;;;15.32;100.00;98057.06;5083165;28;20551;-72
2021/06/23 01:53:39;;;;;;;28.60;25.93;;;;;;;15.27;100.00;98046.16;5081034;28;20202;-70
2021/06/23 01:56:07;;;;;;;29.30;26.40;;;;;;;15.26;100.00;98049.84;5080701;28;20209;-72
2021/06/23 01:58:39;;;;;;;27.43;24.87;;;;;;;15.19;100.00;98055.97;5080637;28;20222;-72
2021/06/23 02:01:14;;;;;;;28.70;26.07;;;;;;;15.25;100.00;98042.84;5077894;28;20234;-72
2021/06/23 02:03:47;;;;;;;27.27;24.77;;;;;;;15.37;100.00;98051.97;5082135;28;20625;-72
2021/06/23 02:06:34;;;;;;;29.33;26.67;;;;;;;15.25;100.00;98054.34;5082047;28;20222;-72
2021/06/23 02:09:09;;;;;;;29.40;26.37;;;;;;;15.06;100.00;98053.16;5080506;28;20818;-72
2021/06/23 02:11:38;;;;;;;27.93;25.40;;;;;;;15.10;100.00;98062.44;5085325;28;20201;-71
2021/06/23 02:14:35;;;;;;;29.87;26.87;;;;;;;15.05;100.00;98070.19;5080033;28;20206;-72
2021/06/23 02:17:06;;;;;;;28.17;25.30;;;;;;;15.13;100.00;98071.91;5081777;28;20206;-69
2021/06/23 02:19:39;;;;;;;27.03;24.53;;;;;;;15.10;100.00;98074.97;5080433;28;20210;-72
2021/06/23 02:22:11;;;;;;;29.73;26.87;;;;;;;14.99;100.00;98070.94;5083974;28;20229;-71
2021/06/23 02:24:40;;;;;;;28.60;25.93;;;;;;;15.03;100.00;98064.22;5075212;28;20224;-72
2021/06/23 02:27:08;;;;;;;29.70;26.80;;;;;;;15.07;100.00;98065.47;5073830;28;20202;-73
2021/06/23 02:29:38;;;;;;;29.17;26.27;;;;;;;14.95;100.00;98057.16;5074094;28;20210;-71
2021/06/23 02:32:07;;;;;;;29.23;26.43;;;;;;;15.00;100.00;98049.44;5079913;28;20613;-70
2021/06/23 02:34:35;;;;;;;27.40;24.90;;;;;;;15.04;100.00;98057.84;5079201;28;20213;-70
2021/06/23 02:37:04;;;;;;;28.70;25.97;;;;;;;15.03;100.00;98064.22;5077097;28;20210;-69
2021/06/23 02:39:32;;;;;;;28.83;25.87;;;;;;;15.01;100.00;98071.59;5084447;28;20579;-72
2021/06/23 02:42:00;;;;;;;28.30;25.60;;;;;;;15.00;100.00;98069.94;5079807;28;20226;-72
2021/06/23 02:44:28;;;;;;;28.43;25.77;;;;;;;14.93;100.00;98066.38;5077897;28;20229;-71
2021/06/23 02:46:57;;;;;;;28.83;26.20;;;;;;;15.01;100.00;98069.75;5078710;28;20214;-69
2021/06/23 02:49:26;;;;;;;28.07;25.37;;;;;;;15.02;100.00;98062.56;5078169;28;20633;-71
2021/06/23 02:51:58;;;;;;;29.27;26.47;;;;;;;14.89;100.00;98063.25;5078663;28;20690;-71
2021/06/23 02:54:26;;;;;;;28.67;26.03;;;;;;;14.81;100.00;98061.56;5075848;28;20209;-70
2021/06/23 02:56:54;;;;;;;30.73;27.63;;;;;;;14.72;100.00;98066.19;5074363;28;20563;-71
2021/06/23 02:59:22;;;;;;;31.10;27.90;;;;;;;14.75;100.00;98048.94;5077009;28;20218;-71
2021/06/23 03:01:51;;;;;;;31.53;28.57;;;;;;;14.67;100.00;98051.72;5076839;28;20206;-70
2021/06/23 03:04:20;;;;;;;31.13;28.13;;;;;;;14.86;100.00;98048.47;5076670;28;20213;-68
2021/06/23 03:06:48;;;;;;;31.93;28.83;;;;;;;14.81;100.00;98042.03;5076086;28;20669;-70
2021/06/23 03:09:16;;;;;;;32.30;29.00;;;;;;;14.81;100.00;98042.03;5079913;28;20229;-71
2021/06/23 03:11:44;;;;;;;31.97;28.57;;;;;;;14.81;100.00;98044.72;5080495;28;20221;-70
2021/06/23 03:14:12;;;;;;;34.90;31.20;;;;;;;14.79;100.00;98050.25;5081430;28;20369;-71
2021/06/23 03:16:40;;;;;;;32.97;29.53;;;;;;;14.81;100.00;98063.38;5079902;28;20202;-70
2021/06/23 03:19:08;;;;;;;31.83;28.63;;;;;;;14.81;100.00;98074.06;5080667;28;20218;-70
2021/06/23 03:21:38;;;;;;;32.53;29.33;;;;;;;14.77;100.00;98078.94;5081634;28;20216;-70
2021/06/23 03:24:07;;;;;;;30.90;27.70;;;;;;;14.73;100.00;98077.66;5077418;28;20599;-71
2021/06/23 03:26:35;;;;;;;30.80;27.53;;;;;;;14.68;100.00;98069.38;5081680;28;20199;-70
2021/06/23 03:29:15;;;;;;;33.30;29.20;;;;;;;14.82;100.00;98065.03;5084697;28;20396;-70
2021/06/23 03:31:44;;;;;;;31.83;28.60;;;;;;;14.80;100.00;98049.25;5081633;28;20206;-70
2021/06/23 03:34:12;;;;;;;32.93;29.60;;;;;;;14.85;100.00;98048.66;5081448;28;20582;-67
2021/06/23 03:36:41;;;;;;;33.03;29.67;;;;;;;15.04;100.00;98042.69;5075896;28;20198;-66
2021/06/23 03:39:09;;;;;;;32.17;29.13;;;;;;;15.07;100.00;98040.66;5080827;28;20713;-66
2021/06/23 03:41:37;;;;;;;31.20;28.20;;;;;;;15.03;100.00;98040.19;5078582;28;20215;-67
2021/06/23 03:44:05;;;;;;;31.53;28.23;;;;;;;14.96;100.00;98042.78;5079678;28;20233;-68
2021/06/23 03:46:33;;;;;;;32.07;29.07;;;;;;;15.03;100.00;98049.03;5077395;28;20236;-67
2021/06/23 03:49:01;;;;;;;31.07;28.07;;;;;;;14.92;100.00;98062.88;5080806;28;20225;-67
2021/06/23 03:51:29;;;;;;;30.27;27.37;;;;;;;14.89;100.00;98066.75;5079534;28;20504;-66
2021/06/23 03:53:58;;;;;;;30.00;26.87;;;;;;;14.84;100.00;98073.69;5079422;28;20572;-67
2021/06/23 03:56:26;;;;;;;30.80;27.90;;;;;;;14.94;100.00;98076.03;5080344;28;20578;-67
2021/06/23 03:58:54;;;;;;;32.17;28.90;;;;;;;14.96;100.00;98074.81;5082503;28;20226;-68
2021/06/23 04:01:22;;;;;;;30.40;27.50;;;;;;;15.07;100.00;98080.69;5079894;28;20206;-68
2021/06/23 04:03:50;;;;;;;30.73;27.63;;;;;;;15.14;100.00;98079.72;5082422;28;20258;-66
2021/06/23 04:06:18;;;;;;;31.07;28.07;;;;;;;15.13;100.00;98088.72;5081652;28;20546;-68
2021/06/23 04:08:46;;;;;;;30.03;27.03;;;;;;;15.01;100.00;98087.59;5080683;28;20664;-67
2021/06/23 04:11:15;;;;;;;30.80;27.90;;;;;;;15.11;100.00;98092.63;5080821;28;20209;-67
2021/06/23 04:13:43;;;;;;;30.93;28.00;;;;;;;15.02;100.00;98091.91;5080995;28;20198;-67
2021/06/23 04:16:12;;;;;;;30.10;27.13;;;;;;;15.28;100.00;98079.84;5075992;28;20202;-67
2021/06/23 04:18:40;;;;;;;29.67;26.80;;;;;;;15.33;100.00;98080.91;5078098;28;20532;-67
2021/06/23 04:21:08;;;;;;;30.03;27.23;;;;;;;15.42;100.00;98075.44;5081167;28;20303;-68
2021/06/23 04:23:36;;;;;;;28.80;26.00;;;;;;;15.44;100.00;98070.72;5079764;28;20253;-68
2021/06/23 04:26:04;;;;;;;29.73;26.87;;;;;;;15.29;100.00;98068.16;5080726;28;20206;-68
2021/06/23 04:28:33;;;;;;;27.27;24.50;;;;;;;15.23;100.00;98075.06;5081006;28;21049;-68
2021/06/23 04:31:01;;;;;;;28.63;25.93;;;;;;;15.34;100.00;98079.06;5082125;28;20202;-67
2021/06/23 04:33:29;;;;;;;31.57;28.73;;;;;;;15.48;100.00;98075.47;5079658;28;20229;-67
2021/06/23 04:35:57;;;;;;;30.57;27.67;;;;;;;15.43;100.00;98083.25;5083582;28;20202;-67
2021/06/23 04:38:25;;;;;;;28.90;25.90;;;;;;;15.46;100.00;98096.22;5078033;28;20722;-68
2021/06/23 04:40:53;;;;;;;29.83;26.93;;;;;;;15.46;100.00;98096.22;5080875;28;20206;-69
2021/06/23 04:43:21;;;;;;;28.27;25.43;;;;;;;15.42;100.00;98092.28;5082948;28;20229;-68
2021/06/23 04:45:50;;;;;;;30.57;27.77;;;;;;;15.33;100.00;98101.44;5084980;28;20237;-68
2021/06/23 04:48:18;;;;;;;30.20;27.13;;;;;;;15.41;100.00;98116.50;5085496;28;20789;-68
2021/06/23 04:50:46;;;;;;;31.20;28.20;;;;;;;15.15;100.00;98117.91;5083275;28;20294;-74
2021/06/23 04:53:14;;;;;;;30.77;27.83;;;;;;;15.21;100.00;98119.81;5081384;28;20203;-73
2021/06/23 04:55:42;;;;;;;33.20;29.80;;;;;;;15.13;100.00;98126.09;5082552;28;20210;-75
2021/06/23 04:58:10;;;;;;;30.53;27.53;;;;;;;15.13;100.00;98133.28;5083643;28;21212;-73
2021/06/23 05:00:38;;;;;;;31.40;28.40;;;;;;;15.17;100.00;98132.75;5081312;28;20198;-75
2021/06/23 05:03:08;;;;;;;31.97;28.80;;;;;;;15.18;100.00;98134.38;5084199;28;20464;-74
2021/06/23 05:05:36;;;;;;;31.20;28.03;;;;;;;15.31;100.00;98132.84;5084014;28;20217;-74
2021/06/23 05:08:04;;;;;;;30.07;27.17;;;;;;;15.29;100.00;98130.34;5084964;28;20233;-75
2021/06/23 05:10:33;;;;;;;29.70;27.00;;;;;;;15.25;100.00;98129.09;5084117;28;20206;-74
2021/06/23 05:13:01;;;;;;;32.80;29.50;;;;;;;15.28;100.00;98134.06;5080948;28;20213;-74
2021/06/23 05:15:30;;;;;;;32.27;29.13;;;;;;;15.39;100.00;98121.22;5078408;28;20194;-74
2021/06/23 05:17:58;;;;;;;31.53;28.40;;;;;;;15.27;100.00;98131.59;5084295;28;20253;-73
2021/06/23 05:20:27;;;;;;;29.83;26.93;;;;;;;15.34;100.00;98124.47;5082209;28;20646;-74
2021/06/23 05:22:56;;;;;;;29.53;26.93;;;;;;;15.61;100.00;98138.06;5077319;28;20210;-74
2021/06/23 05:25:25;;;;;;;31.23;28.27;;;;;;;15.46;100.00;98140.78;5081257;28;20222;-74
2021/06/23 05:27:53;;;;;;;29.53;26.67;;;;;;;15.29;100.00;98142.91;5079265;28;20221;-74
2021/06/23 05:30:22;;;;;;;32.67;29.20;;;;;;;15.24;100.00;98154.13;5083946;28;20202;-74
2021/06/23 05:32:50;;;;;;;32.43;29.17;;;;;;;15.17;100.00;98150.56;5084066;28;20206;-74
2021/06/23 05:35:18;;;;;;;32.77;29.27;;;;;;;15.07;100.00;98148.22;5083433;28;20713;-74
2021/06/23 05:37:47;;;;;;;35.27;31.50;;;;;;;15.02;100.00;98167.47;5084729;28;20245;-73
2021/06/23 05:40:16;;;;;;;35.77;31.83;;;;;;;15.04;100.00;98157.44;5082216;28;20214;-73
2021/06/23 05:42:44;;;;;;;33.73;30.33;;;;;;;15.23;100.00;98149.81;5082878;28;20674;-74
2021/06/23 05:45:13;;;;;;;33.57;30.20;;;;;;;15.34;100.00;98153.81;5079393;28;20218;-74
2021/06/23 05:47:40;;;;;;;32.40;28.40;;;;;;;15.52;100.00;98137.34;5084816;28;20380;-74
2021/06/23 05:50:09;;;;;;;34.20;30.80;;;;;;;15.66;100.00;98145.47;5080129;28;20214;-75
2021/06/23 05:52:37;;;;;;;31.90;28.50;;;;;;;15.69;100.00;98143.25;5082908;28;20217;-74
2021/06/23 05:55:07;;;;;;;33.40;30.00;;;;;;;15.85;100.00;98135.94;5082159;28;20209;-74
2021/06/23 05:57:35;;;;;;;33.33;29.90;;;;;;;15.89;100.00;98134.56;5083399;28;20226;-74
2021/06/23 06:00:04;;;;;;;31.53;28.57;;;;;;;16.02;100.00;98134.69;5080947;28;20222;-75
2021/06/23 06:02:32;;;;;;;32.20;29.10;;;;;;;15.95;100.00;98128.47;5080190;28;20206;-74
2021/06/23 06:05:00;;;;;;;30.47;27.60;;;;;;;16.11;100.00;98132.69;5080883;28;20229;-74
2021/06/23 06:07:28;;;;;;;30.87;27.90;;;;;;;16.04;100.00;98145.16;5082495;28;20233;-75
2021/06/23 06:09:56;;;;;;;29.73;27.03;;;;;;;16.04;100.00;98135.31;5079317;28;20203;-74
2021/06/23 06:12:25;;;;;;;28.83;26.03;;;;;;;16.17;100.00;98134.56;5084772;28;20206;-75
2021/06/23 06:14:54;;;;;;;29.10;26.07;;;;;;;16.22;100.00;98122.44;5083899;28;20204;-75
2021/06/23 06:17:22;;;;;;;28.70;25.80;;;;;;;16.12;100.00;98144.19;5081853;28;20210;-75
2021/06/23 06:19:50;;;;;;;30.30;27.37;;;;;;;16.05;100.00;98150.31;5079925;28;20577;-74
2021/06/23 06:22:18;;;;;;;31.03;27.80;;;;;;;16.05;100.00;98152.16;5079392;28;20214;-74
2021/06/23 06:24:46;;;;;;;31.97;29.07;;;;;;;15.98;100.00;98159.31;5084531;28;20238;-74
2021/06/23 06:27:14;;;;;;;32.63;29.40;;;;;;;15.94;100.00;98169.59;5074846;28;20206;-74
2021/06/23 06:29:44;;;;;;;31.80;28.43;;;;;;;15.93;100.00;98177.78;5082873;28;20201;-74
2021/06/23 06:32:13;;;;;;;30.73;27.97;;;;;;;15.90;100.00;98174.47;5082981;28;20194;-74
2021/06/23 06:34:41;;;;;;;30.00;27.03;;;;;;;16.00;100.00;98171.47;5067933;28;21007;-75
2021/06/23 06:37:09;;;;;;;32.00;28.73;;;;;;;16.01;100.00;98172.28;5072233;28;20250;-74
2021/06/23 06:39:37;;;;;;;32.30;29.13;;;;;;;16.06;100.00;98176.03;5074191;28;20642;-75
2021/06/23 06:42:06;;;;;;;31.53;28.43;;;;;;;15.96;100.00;98180.06;5073832;28;20203;-74
2021/06/23 06:44:34;;;;;;;31.20;28.00;;;;;;;15.93;100.00;98175.94;5071267;28;20222;-75
2021/06/23 06:47:04;;;;;;;34.07;30.57;;;;;;;15.75;100.00;98181.72;5075554;28;20549;-75
2021/06/23 06:49:32;;;;;;;32.20;29.10;;;;;;;15.78;100.00;98187.50;5069306;28;20218;-75
2021/06/23 06:52:01;;;;;;;31.23;28.07;;;;;;;16.05;100.00;98192.25;5067996;28;20207;-74
2021/06/23 06:54:30;;;;;;;31.13;28.37;;;;;;;16.23;100.00;98194.44;5065643;28;20294;-75
2021/06/23 06:56:58;;;;;;;27.17;24.70;;;;;;;16.34;100.00;98191.22;5082532;28;20206;-74
2021/06/23 06:59:26;;;;;;;31.67;28.57;;;;;;;16.35;100.00;98179.50;5077144;28;20230;-74
2021/06/23 07:01:54;;;;;;;29.17;26.37;;;;;;;16.59;100.00;98184.56;5075487;28;20206;-74
2021/06/23 07:04:23;;;;;;;29.67;26.83;;;;;;;16.82;100.00;98184.25;5080843;28;20293;-75
2021/06/23 07:06:51;;;;;;;27.73;25.13;;;;;;;16.96;100.00;98187.81;5074288;28;20220;-75
2021/06/23 07:09:19;;;;;;;26.60;24.37;;;;;;;17.21;100.00;98189.97;5067529;28;20247;-74
2021/06/23 07:11:48;;;;;;;27.10;24.70;;;;;;;17.56;100.00;98183.66;5068464;28;20214;-74
2021/06/23 07:14:16;;;;;;;28.87;26.07;;;;;;;18.14;100.00;98177.69;5075216;28;20252;-74
2021/06/23 07:16:45;;;;;;;27.70;25.20;;;;;;;18.39;100.00;98189.63;5081270;28;20571;-74
2021/06/23 07:19:14;;;;;;;26.80;24.37;;;;;;;18.40;100.00;98193.94;5082006;28;20233;-73
2021/06/23 07:21:43;;;;;;;23.80;21.60;;;;;;;18.65;99.53;98202.97;5082470;28;20218;-74
2021/06/23 07:24:16;;;;;;;23.83;21.73;;;;;;;18.37;98.96;98189.81;5080519;28;20217;-73
2021/06/23 07:26:45;;;;;;;25.20;22.97;;;;;;;18.44;98.99;98198.69;5077983;28;20206;-74
2021/06/23 07:29:13;;;;;;;24.70;22.33;;;;;;;18.22;100.00;98209.66;5080890;28;20314;-73
2021/06/23 07:31:46;;;;;;;26.53;24.23;;;;;;;18.47;100.00;98195.59;5083078;28;20551;-74
2021/06/23 07:34:32;;;;;;;24.00;21.80;;;;;;;18.68;100.00;98203.59;5080899;28;20666;-73
2021/06/23 07:37:03;;;;;;;23.00;21.00;;;;;;;18.98;100.00;98203.91;5083639;28;20209;-73
2021/06/23 07:39:32;;;;;;;23.70;21.70;;;;;;;19.01;97.55;98206.16;5088108;28;20231;-74
2021/06/23 07:42:00;;;;;;;23.93;21.77;;;;;;;19.17;94.89;98220.97;5083532;28;20650;-74
2021/06/23 07:44:29;;;;;;;23.90;21.93;;;;;;;18.71;96.35;98217.38;5084926;28;20208;-74
2021/06/23 07:46:59;;;;;;;23.10;21.20;;;;;;;18.92;96.10;98215.47;5082124;28;20392;-74
2021/06/23 07:49:30;;;;;;;21.67;19.73;;;;;;;18.66;97.20;98219.88;5081248;28;20249;-73
2021/06/23 07:52:02;;;;;;;24.57;22.57;;;;;;;18.31;99.28;98222.84;5077368;28;20210;-73
2021/06/23 07:54:45;;;;;;;24.50;22.30;;;;;;;17.92;100.00;98233.38;5081996;28;20660;-74
2021/06/23 08:11:04;;;;;;;22.83;20.83;;;;;;;18.37;99.64;98236.25;5079950;28;20214;-75
2021/06/23 08:13:32;;;;;;;24.33;22.23;;;;;;;18.54;100.00;98235.00;5080921;28;20198;-74
2021/06/23 08:16:00;;;;;;;23.30;21.20;;;;;;;18.83;95.47;98236.34;5082755;28;20202;-73
2021/06/23 08:18:28;;;;;;;25.07;22.90;;;;;;;18.37;97.10;98236.25;5076147;28;20239;-74
2021/06/23 08:20:56;;;;;;;23.03;21.03;;;;;;;18.79;94.33;98238.66;5080541;28;20214;-74
2021/06/23 08:23:24;;;;;;;24.90;22.67;;;;;;;18.82;94.47;98232.03;5072044;28;20610;-73
2021/06/23 08:25:51;;;;;;;22.43;20.53;;;;;;;19.33;90.30;98222.31;5075770;28;20234;-74
2021/06/23 08:28:22;;;;;;;22.17;20.43;;;;;;;19.73;88.69;98232.03;5079815;28;20229;-74
2021/06/23 08:30:51;;;;;;;22.73;20.73;;;;;;;19.95;85.40;98226.28;5076412;28;20210;-73
2021/06/23 08:33:19;;;;;;;21.40;19.47;;;;;;;19.75;87.36;98235.31;5082214;28;20480;-74
2021/06/23 08:35:47;;;;;;;22.00;20.23;;;;;;;19.70;86.83;98229.75;5078281;28;20769;-75
2021/06/23 08:38:15;;;;;;;20.13;18.47;;;;;;;20.02;84.21;98237.00;5083112;28;20226;-74
2021/06/23 08:40:43;;;;;;;22.50;20.60;;;;;;;20.19;83.64;98238.06;5078178;28;20213;-74
2021/06/23 08:43:13;;;;;;;21.07;19.47;;;;;;;20.21;82.98;98237.88;5076616;28;20535;-74
2021/06/23 08:45:43;;;;;;;20.23;18.73;;;;;;;20.51;81.75;98231.81;5074805;28;20694;-74
2021/06/23 08:48:12;;;;;;;20.87;19.07;;;;;;;20.58;80.67;98229.84;5076043;28;20227;-75
2021/06/23 08:50:40;;;;;;;20.50;18.90;;;;;;;21.18;76.77;98227.53;5068395;28;20733;-74
2021/06/23 08:53:08;;;;;;;20.57;18.97;;;;;;;21.02;79.45;98215.50;5077766;28;20582;-73
2021/06/23 08:55:37;;;;;;;20.37;18.77;;;;;;;21.01;78.45;98220.06;5084284;28;20261;-74
2021/06/23 08:58:05;;;;;;;19.03;17.43;;;;;;;21.41;75.83;98216.03;5080661;28;20217;-74
2021/06/23 09:00:34;;;;;;;20.47;18.73;;;;;;;21.51;74.59;98218.16;5084839;28;20492;-74
2021/06/23 09:03:05;;;;;;;18.97;17.23;;;;;;;21.47;76.06;98214.28;5076029;28;20207;-74
2021/06/23 09:05:47;;;;;;;17.60;16.30;;;;;;;21.67;74.02;98209.44;5078031;28;20227;-74
2021/06/23 09:08:29;;;;;;;20.57;18.77;;;;;;;21.98;72.20;98212.09;5074866;28;21123;-74
2021/06/23 09:10:57;;;;;;;19.33;17.73;;;;;;;22.10;70.21;98204.81;5084710;28;20587;-74
2021/06/23 09:13:25;;;;;;;21.03;19.27;;;;;;;21.83;74.54;98210.66;5084688;28;20221;-74
2021/06/23 09:15:56;;;;;;;19.63;18.03;;;;;;;22.06;74.19;98200.13;5083522;28;20214;-73
2021/06/23 09:18:27;;;;;;;19.33;17.83;;;;;;;22.12;72.31;98201.88;5083076;28;20611;-74
2021/06/23 09:20:58;;;;;;;18.87;17.37;;;;;;;22.14;74.26;98201.66;5071368;28;20218;-73
2021/06/23 09:23:44;;;;;;;17.80;16.33;;;;;;;22.32;71.57;98193.41;5079988;28;20528;-74
2021/06/23 09:26:14;;;;;;;18.23;16.73;;;;;;;22.20;70.14;98204.25;5073066;28;20757;-73
2021/06/23 09:28:43;;;;;;;19.60;17.90;;;;;;;22.46;69.22;98201.31;5079522;28;20386;-74
2021/06/23 09:31:11;;;;;;;20.67;18.77;;;;;;;22.34;69.73;98204.00;5081640;28;20195;-73
2021/06/23 09:33:41;;;;;;;18.97;17.57;;;;;;;22.34;73.97;98201.28;5078121;28;20207;-73
2021/06/23 09:36:11;;;;;;;16.87;15.27;;;;;;;22.68;72.44;98205.03;5078763;28;20233;-73
2021/06/23 09:38:59;;;;;;;19.27;17.67;;;;;;;23.20;67.97;98200.66;5077008;28;20664;-73
2021/06/23 09:41:28;;;;;;;19.63;17.93;;;;;;;22.87;67.75;98201.34;5080899;28;20214;-74
2021/06/23 09:44:01;;;;;;;18.53;17.00;;;;;;;22.52;72.44;98205.78;5073356;28;20849;-74
2021/06/23 09:46:31;;;;;;;19.20;17.70;;;;;;;23.03;70.49;98208.72;5080872;28;20243;-73
2021/06/23 09:49:09;;;;;;;18.73;17.17;;;;;;;23.17;66.96;98203.00;5083896;28;20226;-73
2021/06/23 09:51:49;;;;;;;15.90;14.80;;;;;;;22.89;68.15;98205.47;5084276;28;20197;-73
2021/06/23 09:54:19;;;;;;;17.03;15.83;;;;;;;22.37;69.52;98203.53;5083711;28;20205;-73
2021/06/23 09:57:11;;;;;;;18.40;17.10;;;;;;;21.94;71.92;98195.53;5083533;28;20433;-73
2021/06/23 09:59:40;;;;;;;17.57;16.13;;;;;;;21.57;74.33;98201.06;5084719;28;20197;-74
2021/06/23 10:02:24;;;;;;;18.17;16.87;;;;;;;21.64;72.70;98193.72;5083291;28;20206;-74
2021/06/23 10:04:54;;;;;;;18.37;16.87;;;;;;;21.44;73.23;98196.69;5079907;28;20611;-73
2021/06/23 10:07:41;;;;;;;16.03;14.67;;;;;;;21.35;74.06;98204.28;5081202;28;20229;-73
2021/06/23 10:10:11;;;;;;;16.97;15.77;;;;;;;21.55;73.08;98203.97;5084528;28;20206;-74
2021/06/23 10:12:39;;;;;;;18.57;17.13;;;;;;;21.65;72.11;98195.38;5078696;28;20203;-74
2021/06/23 10:15:09;;;;;;;17.47;16.07;;;;;;;21.88;72.05;98198.34;5078650;28;20256;-74
2021/06/23 10:17:38;;;;;;;16.57;15.17;;;;;;;22.17;70.57;98201.19;5081541;28;20567;-71
2021/06/23 10:20:09;;;;;;;16.50;15.27;;;;;;;22.22;69.74;98196.72;5077617;28;20206;-71
2021/06/23 10:22:39;;;;;;;15.97;14.63;;;;;;;22.76;68.51;98193.03;5079945;28;20213;-72
2021/06/23 10:25:09;;;;;;;16.77;15.50;;;;;;;22.98;66.20;98189.69;5087062;28;20574;-71
2021/06/23 10:27:41;;;;;;;14.67;13.50;;;;;;;23.11;66.13;98181.28;5081236;28;20238;-71
2021/06/23 10:30:10;;;;;;;13.97;12.97;;;;;;;22.95;65.90;98182.88;5080314;28;20579;-70
2021/06/23 10:32:38;;;;;;;13.77;12.60;;;;;;;22.60;66.61;98183.00;5076233;28;20738;-71
2021/06/23 10:35:09;;;;;;;12.80;11.80;;;;;;;22.24;67.56;98175.72;5085644;28;20210;-71
2021/06/23 10:37:39;;;;;;;13.57;12.27;;;;;;;22.18;67.38;98173.97;5081567;28;20222;-72
2021/06/23 10:40:09;;;;;;;14.00;12.90;;;;;;;22.50;67.58;98176.28;5076398;28;20199;-72
2021/06/23 10:42:37;;;;;;;14.37;13.37;;;;;;;23.08;68.36;98170.13;5082988;28;20207;-71
2021/06/23 10:45:06;;;;;;;15.93;14.83;;;;;;;23.37;67.18;98170.16;5081914;28;20210;-68
2021/06/23 10:47:37;;;;;;;14.43;13.43;;;;;;;23.37;64.39;98160.19;5082736;28;20594;-71
2021/06/23 10:50:09;;;;;;;16.23;15.03;;;;;;;24.55;57.66;98162.22;5081545;28;20229;-70
2021/06/23 10:52:42;;;;;;;17.37;16.00;;;;;;;24.53;59.93;98162.50;5084637;28;20710;-72
2021/06/23 10:55:43;;;;;;;20.27;18.43;;;;;;;24.88;58.24;98165.91;5082988;28;20420;-73
2021/06/23 10:58:12;;;;;;;17.00;15.60;;;;;;;24.75;60.39;98158.16;5076211;28;20252;-73
2021/06/23 11:00:44;;;;;;;17.63;15.97;;;;;;;25.78;56.46;98152.94;5080714;28;20298;-73
2021/06/23 11:03:14;;;;;;;18.20;16.63;;;;;;;26.04;55.29;98158.56;5076192;28;20207;-73
2021/06/23 11:05:45;;;;;;;17.63;16.13;;;;;;;26.59;54.42;98149.09;5081293;28;20202;-73
2021/06/23 11:08:27;;;;;;;16.17;14.93;;;;;;;26.96;52.92;98150.09;5082733;28;20233;-74
2021/06/23 11:10:56;;;;;;;14.40;13.10;;;;;;;27.29;50.68;98152.59;5079425;28;20441;-73
2021/06/23 11:13:25;;;;;;;14.80;13.47;;;;;;;27.86;47.37;98145.28;5081929;28;20206;-73
2021/06/23 11:15:54;;;;;;;16.00;14.90;;;;;;;27.51;47.55;98154.28;5081823;28;20717;-73
2021/06/23 11:18:25;;;;;;;15.50;14.30;;;;;;;26.26;50.46;98144.88;5080885;28;20233;-72
2021/06/23 11:20:56;;;;;;;15.60;14.27;;;;;;;25.59;53.53;98147.94;5080572;28;20216;-73
2021/06/23 11:23:41;;;;;;;16.13;14.60;;;;;;;25.86;50.95;98145.16;5081856;28;20700;-73
2021/06/23 11:26:10;;;;;;;15.37;14.13;;;;;;;25.73;53.07;98140.16;5080937;28;20201;-74
2021/06/23 11:28:38;;;;;;;13.37;12.33;;;;;;;25.64;53.91;98145.25;5083560;28;20226;-73
2021/06/23 11:31:10;;;;;;;12.37;11.57;;;;;;;25.56;53.73;98138.41;5080853;28;20214;-71
2021/06/23 11:33:51;;;;;;;13.90;12.80;;;;;;;26.05;51.93;98135.78;5086732;28;20202;-73
2021/06/23 11:36:21;;;;;;;14.50;13.30;;;;;;;25.93;53.81;98135.97;5082561;28;20628;-72
2021/06/23 11:38:51;;;;;;;14.73;13.63;;;;;;;26.14;51.22;98145.03;5077622;28;20721;-74